X  Luk Metar data     EDDS Stuttgart Airport
Temperatur
9°C Temperatur
7°C Duggpunkt
87% Fugtighed



Vind
3 KM/T
2 MPT
1 M/S
2 KNOB



Stille
Nord
Nuværende forhold

Klart Klart
Tryk 1019.92 (hPa) - 30.12 (inHg)
Sigt 6.2 (mil) - 10 (km)
Lufthavn
Lufthavnskode EDDS

Lokation: Stuttgart Airport
Afstand: 10 (km)

Metar:
EDDS 010050Z VRB02KT CAVOK 09/07 Q1020

Tid: 01-11-2020 01:50 CET